Time;durP1;ratioP1;P1;durP2;ratioP2;P2;SDS_P1;SDS_P2;PMS_P1;PMS_P2;Temp;Humidity;BMP_temperature;BMP_pressure;BME280_temperature;BME280_humidity;BME280_pressure;Samples;Min_cycle;Max_cycle;Signal;HPM_P1;HPM_P2
2022/04/15 00:02:18;;;;;;;7.03;3.60;;;;;;;8.55;100.00;102145.50;10189565;28;20484;-61
2022/04/15 00:07:15;;;;;;;6.43;3.45;;;;;;;8.38;100.00;102144.91;10197533;28;20141;-62
2022/04/15 00:12:17;;;;;;;9.43;3.92;;;;;;;8.45;100.00;102150.97;10188578;28;20107;-60
2022/04/15 00:17:14;;;;;;;10.50;4.10;;;;;;;8.43;100.00;102153.13;10203366;28;20069;-61
2022/04/15 00:22:10;;;;;;;11.45;3.75;;;;;;;8.39;100.00;102157.44;10190834;28;20050;-60
2022/04/15 00:27:07;;;;;;;8.15;3.83;;;;;;;8.33;100.00;102159.34;10208655;28;20148;-60
2022/04/15 00:32:04;;;;;;;9.25;4.07;;;;;;;8.35;100.00;102150.88;10237800;28;20057;-60
2022/04/15 00:37:00;;;;;;;8.13;5.00;;;;;;;8.42;100.00;102156.91;10224642;28;20133;-60
2022/04/15 00:41:58;;;;;;;9.80;6.13;;;;;;;8.30;100.00;102153.59;10219045;28;20088;-60
2022/04/15 00:46:54;;;;;;;11.93;5.10;;;;;;;8.12;100.00;102157.59;10223169;28;20502;-61
2022/04/15 00:51:52;;;;;;;13.20;5.53;;;;;;;8.19;100.00;102161.75;10216574;28;20103;-60
2022/04/15 00:56:51;;;;;;;12.05;6.57;;;;;;;8.23;100.00;102164.72;10225961;28;20085;-60
2022/04/15 01:01:48;;;;;;;11.95;6.07;;;;;;;8.16;100.00;102170.44;10204460;28;20132;-60
2022/04/15 01:06:47;;;;;;;11.27;5.60;;;;;;;8.11;100.00;102172.31;10218810;28;20045;-62
2022/04/15 01:11:44;;;;;;;14.23;4.97;;;;;;;8.25;100.00;102169.94;10195404;28;20137;-61
2022/04/15 01:16:40;;;;;;;9.98;4.32;;;;;;;8.20;100.00;102176.19;10205473;28;20057;-60
2022/04/15 01:21:38;;;;;;;11.95;5.32;;;;;;;8.31;100.00;102171.56;10195699;28;20053;-60
2022/04/15 01:26:37;;;;;;;10.43;4.60;;;;;;;8.37;100.00;102170.50;10219166;28;20136;-60
2022/04/15 01:31:33;;;;;;;6.30;3.72;;;;;;;8.30;100.00;102178.13;10234495;28;20478;-63
2022/04/15 01:36:30;;;;;;;7.88;4.50;;;;;;;8.32;100.00;102173.22;10229349;28;20049;-62
2022/04/15 01:41:26;;;;;;;9.05;5.05;;;;;;;8.12;100.00;102169.34;10221576;28;20123;-63
2022/04/15 01:46:23;;;;;;;11.43;5.05;;;;;;;8.19;100.00;102179.97;10206298;28;20111;-61
2022/04/15 01:51:19;;;;;;;9.90;4.80;;;;;;;8.23;100.00;102175.63;10211232;28;20104;-60
2022/04/15 01:56:16;;;;;;;12.18;5.75;;;;;;;8.17;100.00;102185.69;10195940;28;20103;-61
2022/04/15 02:01:12;;;;;;;10.73;6.07;;;;;;;8.26;100.00;102182.44;10197125;28;20088;-61
2022/04/15 02:06:09;;;;;;;13.85;6.32;;;;;;;8.12;100.00;102190.28;10202808;28;20139;-60
2022/04/15 02:11:06;;;;;;;10.38;6.05;;;;;;;8.13;100.00;102179.13;10194889;28;20046;-62
2022/04/15 02:16:02;;;;;;;12.13;6.65;;;;;;;8.17;100.00;102172.09;10204211;28;20133;-62
2022/04/15 02:20:59;;;;;;;12.43;7.03;;;;;;;8.10;100.00;102182.41;10193154;28;20420;-63
2022/04/15 02:25:55;;;;;;;16.10;8.13;;;;;;;8.10;100.00;102187.84;10208012;28;20042;-62
2022/04/15 02:30:52;;;;;;;13.63;7.78;;;;;;;8.08;100.00;102190.00;10203673;28;20049;-63
2022/04/15 02:35:49;;;;;;;14.65;8.13;;;;;;;8.11;100.00;102194.94;10211141;28;20069;-64
2022/04/15 02:40:46;;;;;;;18.95;9.52;;;;;;;8.13;100.00;102191.94;10225448;28;20096;-62
2022/04/15 02:45:43;;;;;;;16.30;9.90;;;;;;;8.01;100.00;102211.22;10212035;28;20083;-61
2022/04/15 02:50:40;;;;;;;17.23;10.60;;;;;;;8.09;100.00;102208.00;10219907;28;20050;-61
2022/04/15 02:55:36;;;;;;;19.13;9.50;;;;;;;8.14;100.00;102216.19;10189405;28;20069;-61
2022/04/15 03:00:33;;;;;;;21.85;9.98;;;;;;;8.16;100.00;102219.47;10198574;28;20081;-60
2022/04/15 03:05:30;;;;;;;15.23;9.82;;;;;;;8.15;100.00;102217.84;10206824;28;20534;-61
2022/04/15 03:10:26;;;;;;;14.75;8.93;;;;;;;7.98;100.00;102217.19;10210411;28;20046;-64
2022/04/15 03:15:22;;;;;;;13.43;8.88;;;;;;;7.84;100.00;102216.81;10209148;28;20124;-62
2022/04/15 03:20:20;;;;;;;14.82;8.80;;;;;;;7.95;100.00;102223.16;10192720;28;20104;-63
2022/04/15 03:25:17;;;;;;;15.93;8.35;;;;;;;7.98;100.00;102225.34;10205112;28;20132;-62
2022/04/15 03:30:14;;;;;;;15.57;9.85;;;;;;;7.98;100.00;102228.06;10192438;28;20053;-62
2022/04/15 03:35:10;;;;;;;16.98;9.25;;;;;;;7.96;100.00;102230.25;10184418;28;20132;-62
2022/04/15 03:40:07;;;;;;;13.32;9.20;;;;;;;7.88;100.00;102225.31;10230039;28;20124;-62
2022/04/15 03:45:04;;;;;;;16.90;10.43;;;;;;;7.92;100.00;102229.16;10223080;28;20061;-64
2022/04/15 03:50:00;;;;;;;16.35;10.65;;;;;;;7.90;100.00;102231.31;10228778;28;20128;-63
2022/04/15 03:54:58;;;;;;;19.13;11.15;;;;;;;7.84;100.00;102232.34;10222692;28;20041;-62
2022/04/15 03:59:54;;;;;;;19.02;11.15;;;;;;;7.92;100.00;102234.59;10209740;28;20046;-62
2022/04/15 04:04:51;;;;;;;18.60;10.13;;;;;;;8.00;100.00;102236.81;10204926;28;20073;-63
2022/04/15 04:09:47;;;;;;;16.55;11.13;;;;;;;8.08;100.00;102239.06;10223943;28;20042;-62
2022/04/15 04:14:44;;;;;;;21.50;12.68;;;;;;;7.94;100.00;102246.06;10201591;28;20140;-61
2022/04/15 04:19:40;;;;;;;22.10;12.88;;;;;;;8.00;100.00;102250.44;10195680;28;20073;-62
2022/04/15 04:24:37;;;;;;;25.58;14.23;;;;;;;7.94;100.00;102265.13;10197445;28;20083;-62
2022/04/15 04:29:33;;;;;;;24.45;14.05;;;;;;;8.03;100.00;102258.09;10200618;28;20050;-62
2022/04/15 04:34:29;;;;;;;24.27;14.45;;;;;;;7.74;100.00;102255.69;10206699;28;20136;-62
2022/04/15 04:39:29;;;;;;;26.17;14.90;;;;;;;8.04;100.00;102265.16;10218418;28;20080;-63
2022/04/15 04:44:27;;;;;;;23.40;15.60;;;;;;;8.01;100.00;102273.88;10203282;28;20125;-63
2022/04/15 04:49:24;;;;;;;30.38;16.05;;;;;;;7.95;100.00;102273.00;10212146;28;20144;-63
2022/04/15 04:54:21;;;;;;;28.33;17.15;;;;;;;8.06;100.00;102273.09;10196844;28;20117;-62
2022/04/15 04:59:17;;;;;;;29.60;17.30;;;;;;;8.06;100.00;102284.81;10226947;28;20132;-62
2022/04/15 05:04:14;;;;;;;28.58;17.80;;;;;;;8.13;100.00;102290.84;10192919;28;20543;-62
2022/04/15 05:09:10;;;;;;;31.02;19.48;;;;;;;8.07;100.00;102291.88;10206248;28;20044;-60
2022/04/15 05:14:07;;;;;;;34.92;19.30;;;;;;;8.13;100.00;102299.00;10188575;28;20713;-64
2022/04/15 05:19:03;;;;;;;31.75;19.20;;;;;;;8.15;100.00;102299.56;10202124;28;20432;-62
2022/04/15 05:24:01;;;;;;;34.97;18.58;;;;;;;8.09;100.00;102311.50;10190424;28;20049;-61
2022/04/15 05:28:57;;;;;;;33.55;19.77;;;;;;;7.95;100.00;102321.22;10191755;28;20128;-62
2022/04/15 05:33:54;;;;;;;33.63;20.40;;;;;;;8.14;100.00;102325.16;10196271;28;20262;-62
2022/04/15 05:38:50;;;;;;;35.25;20.60;;;;;;;8.06;100.00;102328.38;10194489;28;20136;-62
2022/04/15 05:43:47;;;;;;;33.97;20.42;;;;;;;8.22;100.00;102332.84;10188071;28;20140;-62
2022/04/15 05:48:44;;;;;;;34.50;20.15;;;;;;;8.30;100.00;102328.81;10188029;28;20106;-62
2022/04/15 05:53:40;;;;;;;38.40;20.83;;;;;;;8.32;100.00;102339.47;10192615;28;20108;-62
2022/04/15 05:58:37;;;;;;;33.63;19.25;;;;;;;8.36;100.00;102340.59;10189022;28;20106;-62
2022/04/15 06:03:34;;;;;;;35.55;20.13;;;;;;;8.28;100.00;102351.97;10203273;28;20073;-63
2022/04/15 06:08:31;;;;;;;40.95;21.27;;;;;;;8.11;100.00;102363.03;10222325;28;20735;-63
2022/04/15 06:13:27;;;;;;;37.33;20.23;;;;;;;8.20;100.00;102362.28;10194689;28;20668;-63
2022/04/15 06:18:34;;;;;;;42.17;20.02;;;;;;;8.25;100.00;102374.28;10183132;28;20470;-63
2022/04/15 06:23:31;;;;;;;39.45;19.90;;;;;;;8.29;100.00;102375.44;10205626;28;20595;-63
2022/04/15 06:28:27;;;;;;;40.15;20.50;;;;;;;8.26;100.00;102392.28;10198454;28;20069;-63
2022/04/15 06:33:24;;;;;;;39.63;20.23;;;;;;;8.41;100.00;102384.25;10192043;28;20046;-64
2022/04/15 06:38:20;;;;;;;40.90;20.08;;;;;;;8.41;100.00;102401.41;10193772;28;20045;-63
2022/04/15 06:43:17;;;;;;;39.10;18.70;;;;;;;8.38;100.00;102414.72;10206021;28;20100;-65
2022/04/15 06:48:13;;;;;;;34.15;17.30;;;;;;;8.49;100.00;102416.47;10214031;28;20944;-64
2022/04/15 06:53:11;;;;;;;43.30;18.77;;;;;;;8.40;100.00;102423.47;10218577;28;21953;-62
2022/04/15 06:58:07;;;;;;;31.63;17.67;;;;;;;8.47;100.00;102426.81;10194447;28;20158;-63
2022/04/15 07:03:04;;;;;;;32.83;16.65;;;;;;;8.53;100.00;102431.22;10197537;28;20080;-63
2022/04/15 07:08:00;;;;;;;33.95;15.93;;;;;;;8.64;100.00;102422.03;10202819;28;20042;-63
2022/04/15 07:12:57;;;;;;;31.40;16.58;;;;;;;8.72;100.00;102436.25;10200626;28;20564;-64
2022/04/15 07:17:55;;;;;;;32.55;16.90;;;;;;;8.80;100.00;102435.75;10184628;28;20146;-60
2022/04/15 07:22:59;;;;;;;30.88;16.52;;;;;;;8.69;100.00;102439.50;10194577;28;20115;-62
2022/04/15 07:27:56;;;;;;;33.35;17.48;;;;;;;8.67;100.00;102458.84;10205502;28;20144;-62
2022/04/15 07:32:53;;;;;;;33.60;18.15;;;;;;;8.54;100.00;102460.13;10210483;28;20061;-63
2022/04/15 07:37:49;;;;;;;36.00;19.02;;;;;;;8.56;100.00;102468.03;10175138;28;20075;-63
2022/04/15 07:42:46;;;;;;;34.35;19.17;;;;;;;8.55;100.00;102463.69;10183006;28;20049;-64
2022/04/15 07:47:43;;;;;;;28.40;16.75;;;;;;;8.60;100.00;102475.44;10186284;28;20125;-64
2022/04/15 07:52:46;;;;;;;26.90;14.48;;;;;;;8.56;100.00;102468.88;10182932;28;20054;-63
2022/04/15 07:57:43;;;;;;;25.33;14.48;;;;;;;8.63;100.00;102485.00;10177129;28;20137;-64
2022/04/15 08:02:40;;;;;;;23.83;14.25;;;;;;;8.79;100.00;102488.66;10180777;28;20050;-64
2022/04/15 08:07:37;;;;;;;24.15;14.23;;;;;;;8.83;100.00;102506.97;10178319;28;20134;-64
2022/04/15 08:12:33;;;;;;;27.10;15.18;;;;;;;8.81;100.00;102495.47;10183901;28;20230;-61
2022/04/15 08:17:30;;;;;;;26.98;16.25;;;;;;;8.80;100.00;102495.78;10176071;28;20042;-63
2022/04/15 08:22:27;;;;;;;26.80;15.60;;;;;;;8.88;100.00;102503.44;10178934;28;20137;-62
2022/04/15 08:27:25;;;;;;;31.30;16.67;;;;;;;8.85;100.00;102499.34;10198748;28;20041;-66
2022/04/15 08:32:22;;;;;;;26.73;14.90;;;;;;;9.09;100.00;102509.84;10168894;28;20756;-65
2022/04/15 08:37:19;;;;;;;25.60;16.15;;;;;;;9.21;100.00;102506.91;10190139;28;20099;-66
2022/04/15 08:42:20;;;;;;;25.75;15.52;;;;;;;9.21;100.00;102523.28;10179470;28;20185;-65
2022/04/15 08:47:17;;;;;;;24.00;15.93;;;;;;;9.31;100.00;102528.81;10220039;28;20083;-66
2022/04/15 08:52:17;;;;;;;23.80;14.57;;;;;;;9.12;100.00;102530.31;10207625;28;20073;-66
2022/04/15 08:57:14;;;;;;;25.35;15.63;;;;;;;9.23;100.00;102537.50;10183228;28;20073;-66
2022/04/15 09:02:14;;;;;;;23.48;15.05;;;;;;;9.28;100.00;102551.16;10202992;28;20095;-66
2022/04/15 09:07:18;;;;;;;23.75;14.75;;;;;;;9.44;100.00;102555.63;10196869;28;20038;-66
2022/04/15 09:12:15;;;;;;;25.38;15.57;;;;;;;9.65;100.00;102566.66;10200042;28;20077;-65
2022/04/15 09:17:12;;;;;;;25.90;16.02;;;;;;;9.64;100.00;102571.28;10194328;28;20050;-65
2022/04/15 09:22:17;;;;;;;27.80;14.95;;;;;;;9.68;100.00;102577.06;10196635;28;20050;-67
2022/04/15 09:27:14;;;;;;;29.58;16.92;;;;;;;9.77;100.00;102578.19;10183141;28;20157;-67
2022/04/15 09:32:15;;;;;;;23.95;14.77;;;;;;;9.77;100.00;102586.38;10180757;28;20684;-66
2022/04/15 09:37:16;;;;;;;26.80;15.70;;;;;;;9.78;100.00;102598.94;10181782;28;20038;-67
2022/04/15 09:42:13;;;;;;;22.80;15.23;;;;;;;9.77;100.00;102594.59;10166972;28;20081;-66
2022/04/15 09:47:09;;;;;;;24.92;15.32;;;;;;;9.56;100.00;102606.47;10193157;28;20152;-66
2022/04/15 09:52:07;;;;;;;22.77;15.02;;;;;;;9.78;100.00;102604.41;10180167;28;20096;-64
2022/04/15 09:57:06;;;;;;;27.63;16.27;;;;;;;9.69;100.00;102606.81;10160382;28;20834;-64
2022/04/15 10:02:11;;;;;;;29.35;16.85;;;;;;;9.69;100.00;102611.47;10178734;28;20041;-64
2022/04/15 10:07:08;;;;;;;24.80;16.00;;;;;;;9.72;100.00;102616.38;10183233;28;20538;-64
2022/04/15 10:12:06;;;;;;;23.70;14.90;;;;;;;9.75;100.00;102615.88;10186090;28;20064;-63
2022/04/15 10:17:03;;;;;;;27.08;15.45;;;;;;;9.82;100.00;102626.56;10171564;28;20046;-63
2022/04/15 10:22:01;;;;;;;23.80;13.88;;;;;;;9.95;100.00;102622.50;10186181;28;20565;-64
2022/04/15 10:27:00;;;;;;;26.15;15.93;;;;;;;9.97;100.00;102623.06;10200525;28;20068;-63
2022/04/15 10:31:56;;;;;;;26.27;15.60;;;;;;;9.94;100.00;102629.91;10187187;28;20103;-63
2022/04/15 10:36:56;;;;;;;26.38;16.42;;;;;;;9.97;100.00;102634.00;10193003;28;20136;-63
2022/04/15 10:42:04;;;;;;;27.00;15.30;;;;;;;9.99;100.00;102643.56;10187444;28;20046;-63
2022/04/15 10:47:16;;;;;;;26.23;16.42;;;;;;;9.93;100.00;102638.34;10198479;28;20640;-63
2022/04/15 10:52:18;;;;;;;22.90;15.03;;;;;;;9.96;100.00;102649.59;10205548;28;20460;-62
2022/04/15 10:57:17;;;;;;;25.98;15.30;;;;;;;10.05;100.00;102644.44;10204541;28;20087;-62
2022/04/15 11:02:14;;;;;;;27.70;15.40;;;;;;;9.99;100.00;102653.69;10179916;28;20487;-62
2022/04/15 11:07:17;;;;;;;26.70;14.85;;;;;;;9.94;100.00;102653.66;10178271;28;20049;-63
2022/04/15 11:12:13;;;;;;;;;;;;;;;10.02;100.00;102666.81;10184334;28;21940;-62
2022/04/15 11:17:12;;;;;;;24.85;14.43;;;;;;;10.02;100.00;102669.53;10165068;28;20323;-63
2022/04/15 11:22:09;;;;;;;26.45;13.88;;;;;;;9.96;100.00;102670.63;10180793;28;20065;-63
2022/04/15 11:27:06;;;;;;;22.83;13.13;;;;;;;9.99;100.00;102670.09;10169672;28;20083;-64
2022/04/15 11:32:07;;;;;;;24.20;13.25;;;;;;;10.05;100.00;102669.03;10163900;28;20140;-63
2022/04/15 11:37:07;;;;;;;21.25;11.48;;;;;;;9.95;100.00;102674.44;10169436;28;20073;-64
2022/04/15 11:42:12;;;;;;;19.15;9.35;;;;;;;10.06;100.00;102676.13;10200189;28;20050;-64
2022/04/15 11:47:21;;;;;;;17.85;9.02;;;;;;;10.08;100.00;102684.88;10186826;28;20137;-64
2022/04/15 11:52:26;;;;;;;18.45;9.90;;;;;;;10.25;100.00;102690.16;10195924;28;20038;-64
2022/04/15 11:57:23;;;;;;;16.80;9.23;;;;;;;10.21;100.00;102681.69;10195131;28;20132;-64
2022/04/15 12:02:23;;;;;;;13.85;8.88;;;;;;;10.46;100.00;102680.13;10188680;28;20073;-64
2022/04/15 12:07:21;;;;;;;16.58;9.18;;;;;;;10.27;100.00;102682.50;10198091;28;20077;-64
2022/04/15 12:12:19;;;;;;;19.08;10.65;;;;;;;10.35;100.00;102701.16;10207399;28;20042;-64
2022/04/15 12:17:17;;;;;;;16.58;8.88;;;;;;;10.39;100.00;102695.97;10199478;28;20046;-64
2022/04/15 12:22:16;;;;;;;17.55;9.90;;;;;;;10.50;100.00;102697.66;10190378;28;20676;-65
2022/04/15 12:27:17;;;;;;;14.45;8.25;;;;;;;10.55;100.00;102697.66;10194098;28;20499;-65
2022/04/15 12:32:22;;;;;;;13.70;7.38;;;;;;;10.42;100.00;102707.22;10219279;28;20042;-64
2022/04/15 12:37:37;;;;;;;10.02;5.30;;;;;;;10.44;100.00;102709.66;10186564;28;20057;-64
2022/04/15 12:42:36;;;;;;;8.90;4.93;;;;;;;10.62;100.00;102711.91;10197392;28;20116;-63
2022/04/15 12:47:33;;;;;;;9.10;5.82;;;;;;;10.60;100.00;102714.09;10189522;28;20531;-63
2022/04/15 12:52:33;;;;;;;11.00;6.00;;;;;;;10.48;100.00;102721.72;10185615;28;20082;-64
2022/04/15 12:57:34;;;;;;;11.15;6.20;;;;;;;10.57;100.00;102733.78;10189892;28;20910;-64
2022/04/15 13:02:31;;;;;;;10.60;6.28;;;;;;;10.51;100.00;102734.84;10194351;28;20072;-63
2022/04/15 13:07:28;;;;;;;11.95;6.35;;;;;;;10.29;100.00;102741.31;10187958;28;20052;-62
2022/04/15 13:12:24;;;;;;;10.60;6.05;;;;;;;10.20;100.00;102742.88;10218805;28;20140;-62
2022/04/15 13:17:22;;;;;;;10.93;5.50;;;;;;;10.31;100.00;102744.63;10176503;28;20137;-63
2022/04/15 13:22:19;;;;;;;14.27;8.07;;;;;;;10.24;100.00;102749.47;10201191;28;20068;-63
2022/04/15 13:27:15;;;;;;;13.93;7.70;;;;;;;10.20;100.00;102753.00;10218754;28;20069;-66
2022/04/15 13:32:12;;;;;;;16.45;8.70;;;;;;;10.19;100.00;102752.19;10189817;28;20137;-66
2022/04/15 13:37:08;;;;;;;15.45;7.32;;;;;;;10.13;100.00;102764.19;10210176;28;20050;-66
2022/04/15 13:42:08;;;;;;;14.45;8.52;;;;;;;10.25;100.00;102766.69;10198537;28;20042;-66
2022/04/15 13:47:05;;;;;;;14.95;7.57;;;;;;;10.28;100.00;102761.56;10199376;28;20099;-66
2022/04/15 13:56:34;;;;;;;12.38;6.32;;;;;;;10.37;100.00;102763.78;10189506;28;20147;-65
2022/04/15 13:57:18;;;;;;;12.10;5.53;;;;;;;10.59;100.00;102766.34;10179997;28;20559;-65
2022/04/15 14:02:15;;;;;;;11.65;6.65;;;;;;;10.57;100.00;102774.00;10192004;28;20096;-66
2022/04/15 14:07:11;;;;;;;14.55;7.22;;;;;;;10.59;100.00;102772.63;10204170;28;20088;-65
2022/04/15 14:12:08;;;;;;;13.75;6.47;;;;;;;10.68;100.00;102781.97;10199896;28;20069;-65
2022/04/15 14:17:05;;;;;;;12.32;6.40;;;;;;;10.53;100.00;102779.16;10189999;28;20523;-66
2022/04/15 14:22:02;;;;;;;11.65;6.43;;;;;;;10.59;100.00;102789.03;10216840;28;20088;-66
2022/04/15 14:26:59;;;;;;;12.05;5.85;;;;;;;10.47;100.00;102792.00;10221164;28;20116;-66
2022/04/15 14:31:59;;;;;;;11.88;6.00;;;;;;;10.50;100.00;102796.94;10195790;28;20045;-64
2022/04/15 14:36:56;;;;;;;12.60;6.78;;;;;;;10.59;100.00;102800.00;10182902;28;20053;-63
2022/04/15 14:41:53;;;;;;;13.50;7.05;;;;;;;10.63;100.00;102806.56;10181207;28;20452;-63
2022/04/15 14:46:49;;;;;;;14.50;7.70;;;;;;;10.57;100.00;102815.84;10187145;28;20041;-63
2022/04/15 14:51:46;;;;;;;13.95;7.88;;;;;;;10.54;100.00;102813.66;10179970;28;20137;-63
2022/04/15 14:56:43;;;;;;;12.10;7.22;;;;;;;10.61;100.00;102819.69;10184282;28;20137;-63
2022/04/15 15:01:40;;;;;;;13.57;7.50;;;;;;;10.54;100.00;102835.53;10166314;28;20047;-63
2022/04/15 15:06:36;;;;;;;15.02;8.27;;;;;;;10.47;100.00;102829.47;10191130;28;20104;-64
2022/04/15 15:11:33;;;;;;;19.42;9.63;;;;;;;10.36;100.00;102833.25;10205413;28;20156;-63
2022/04/15 15:16:30;;;;;;;17.55;9.25;;;;;;;10.42;100.00;102832.16;10202708;28;20076;-63
2022/04/15 15:21:27;;;;;;;16.50;9.50;;;;;;;10.29;100.00;102834.28;10182522;28;20038;-63
2022/04/15 15:31:39;;;;;;;20.33;10.23;;;;;;;10.19;100.00;102849.75;10195117;28;20129;-63
2022/04/15 15:36:35;;;;;;;20.90;11.48;;;;;;;10.17;100.00;102847.31;10182571;28;20136;-64
2022/04/15 15:41:32;;;;;;;20.30;11.75;;;;;;;9.98;100.00;102851.53;10195772;28;20498;-63
2022/04/15 15:46:28;;;;;;;22.30;11.73;;;;;;;10.04;100.00;102858.69;10189482;28;20658;-64
2022/04/15 15:51:27;;;;;;;20.48;11.10;;;;;;;9.98;100.00;102860.56;10179714;28;20044;-63
2022/04/15 15:56:24;;;;;;;20.92;12.27;;;;;;;10.05;100.00;102874.00;10180552;28;20603;-63
2022/04/15 16:01:20;;;;;;;19.25;12.32;;;;;;;9.62;100.00;102875.81;10188211;28;20068;-64
2022/04/15 16:06:19;;;;;;;21.08;12.85;;;;;;;9.80;100.00;102878.16;10197108;28;20042;-64
2022/04/15 16:11:15;;;;;;;25.00;12.88;;;;;;;9.84;100.00;102886.66;10187985;28;20041;-65
2022/04/15 16:16:12;;;;;;;16.80;10.82;;;;;;;9.81;100.00;102893.47;10185384;28;20126;-64
2022/04/15 16:21:09;;;;;;;20.15;11.50;;;;;;;9.66;100.00;102899.63;10189479;28;20038;-64
2022/04/15 16:26:06;;;;;;;17.38;10.60;;;;;;;9.84;100.00;102903.91;10182692;28;20056;-62
2022/04/15 16:31:03;;;;;;;14.80;10.07;;;;;;;9.89;100.00;102906.66;10180991;28;20046;-64
2022/04/15 16:36:00;;;;;;;14.88;9.07;;;;;;;9.99;100.00;102916.03;10172723;28;20166;-62
2022/04/15 16:40:58;;;;;;;16.88;8.30;;;;;;;9.86;100.00;102926.31;10161888;28;20504;-63
2022/04/15 16:46:00;;;;;;;12.75;7.85;;;;;;;9.65;100.00;102921.72;10177991;28;20050;-66
2022/04/15 16:50:57;;;;;;;15.40;8.05;;;;;;;9.66;100.00;102928.84;10189067;28;20049;-67
2022/04/15 17:01:11;;;;;;;14.85;8.23;;;;;;;9.53;100.00;102941.00;10188502;28;20042;-66
2022/04/15 17:06:08;;;;;;;19.00;8.02;;;;;;;9.59;100.00;102944.63;10203929;28;20077;-66
2022/04/15 17:11:06;;;;;;;15.10;9.07;;;;;;;9.60;100.00;102946.25;10201186;28;20558;-66
2022/04/15 17:16:05;;;;;;;14.85;8.20;;;;;;;9.64;100.00;102941.94;10187158;28;20409;-66
2022/04/15 17:21:05;;;;;;;14.82;8.40;;;;;;;9.64;100.00;102947.41;10199461;28;20132;-67
2022/04/15 17:26:03;;;;;;;15.02;7.40;;;;;;;9.45;100.00;102953.22;10184794;28;20057;-65
2022/04/15 17:31:01;;;;;;;13.25;7.32;;;;;;;9.47;100.00;102970.16;10198639;28;20045;-67
2022/04/15 17:35:58;;;;;;;13.45;7.45;;;;;;;9.50;100.00;102962.53;10171273;28;20061;-65
2022/04/15 17:40:55;;;;;;;16.30;7.18;;;;;;;9.33;100.00;102974.38;10166295;28;20057;-66
2022/04/15 17:45:52;;;;;;;15.32;7.28;;;;;;;9.35;100.00;102972.22;10156733;28;20108;-66
2022/04/15 17:50:49;;;;;;;14.50;6.90;;;;;;;9.26;100.00;102984.66;10160199;28;20045;-66
2022/04/15 17:55:48;;;;;;;14.52;7.45;;;;;;;9.27;100.00;102981.66;10158932;28;20053;-66
2022/04/15 18:00:52;;;;;;;14.43;8.30;;;;;;;9.11;100.00;102992.63;10172237;28;20147;-66
2022/04/15 18:05:50;;;;;;;12.77;7.10;;;;;;;9.19;100.00;102992.19;10201717;28;20045;-66
2022/04/15 18:10:49;;;;;;;14.45;8.18;;;;;;;9.04;100.00;103001.81;10210733;28;20072;-66
2022/04/15 18:15:46;;;;;;;13.00;7.10;;;;;;;9.01;100.00;103005.06;10201818;28;20670;-66
2022/04/15 18:20:42;;;;;;;12.68;8.00;;;;;;;8.96;100.00;103017.81;10194096;28;20753;-67
2022/04/15 18:25:39;;;;;;;15.10;8.68;;;;;;;8.94;100.00;103015.31;10220346;28;20133;-66
2022/04/15 18:30:37;;;;;;;15.82;7.80;;;;;;;8.95;100.00;103033.34;10203071;28;20181;-66
2022/04/15 18:35:33;;;;;;;15.70;7.72;;;;;;;8.85;100.00;103049.56;10210948;28;20058;-67
2022/04/15 18:40:30;;;;;;;15.60;7.63;;;;;;;8.76;100.00;103056.50;10200454;28;20108;-66
2022/04/15 18:45:29;;;;;;;15.55;8.00;;;;;;;8.81;100.00;103075.69;10177059;28;20218;-67
2022/04/15 18:55:41;;;;;;;17.02;8.75;;;;;;;8.65;100.00;103085.50;10207621;28;20133;-65
2022/04/15 19:00:38;;;;;;;19.38;8.32;;;;;;;8.74;100.00;103096.84;10201137;28;20081;-66
2022/04/15 19:05:34;;;;;;;16.25;8.70;;;;;;;8.57;100.00;103096.84;10210992;28;20046;-66
2022/04/15 19:10:32;;;;;;;15.60;7.65;;;;;;;8.54;100.00;103109.06;10189811;28;20053;-66
2022/04/15 19:15:28;;;;;;;16.50;8.27;;;;;;;8.58;100.00;103103.94;10195769;28;20839;-66
2022/04/15 19:20:25;;;;;;;16.15;8.30;;;;;;;8.38;100.00;103113.38;10200342;28;20049;-66
2022/04/15 19:25:21;;;;;;;13.73;8.02;;;;;;;8.35;100.00;103110.28;10214719;28;20169;-67
2022/04/15 19:30:19;;;;;;;15.63;8.68;;;;;;;8.47;100.00;103119.28;10206967;28;20046;-66
2022/04/15 19:35:16;;;;;;;16.52;8.27;;;;;;;8.48;100.00;103126.38;10199179;28;20049;-66
2022/04/15 19:40:12;;;;;;;15.07;7.97;;;;;;;8.46;100.00;103128.53;10213818;28;20046;-66
2022/04/15 19:45:09;;;;;;;19.90;8.50;;;;;;;8.33;100.00;103134.25;10188646;28;20715;-66
2022/04/15 19:50:08;;;;;;;19.17;9.52;;;;;;;8.35;100.00;103129.38;10187971;28;20076;-66
2022/04/15 19:55:06;;;;;;;15.65;8.40;;;;;;;8.39;100.00;103134.09;10197014;28;20136;-66
2022/04/15 20:05:21;;;;;;;22.13;9.85;;;;;;;8.30;100.00;103140.19;10200046;28;20074;-66
2022/04/15 20:10:18;;;;;;;21.85;9.05;;;;;;;8.38;100.00;103148.00;10205532;28;20058;-67
2022/04/15 20:15:15;;;;;;;19.33;9.73;;;;;;;8.44;100.00;103152.47;10211354;28;20061;-67
2022/04/15 20:20:11;;;;;;;15.32;8.52;;;;;;;8.48;100.00;103150.94;10194975;28;20105;-65
2022/04/15 20:25:08;;;;;;;18.50;9.10;;;;;;;8.47;100.00;103160.19;10190183;28;20117;-64
2022/04/15 20:30:05;;;;;;;18.67;9.30;;;;;;;8.47;100.00;103152.00;10180201;28;20126;-65
2022/04/15 20:35:04;;;;;;;19.33;8.52;;;;;;;8.43;100.00;103161.75;10192506;28;20523;-65
2022/04/15 20:40:00;;;;;;;15.95;8.48;;;;;;;8.38;100.00;103172.53;10168163;28;20108;-68
2022/04/15 20:44:57;;;;;;;16.58;8.50;;;;;;;8.41;100.00;103181.06;10187262;28;20049;-65
2022/04/15 20:49:53;;;;;;;20.02;9.35;;;;;;;8.35;100.00;103175.72;10191584;28;20079;-65
2022/04/15 20:54:52;;;;;;;20.73;9.40;;;;;;;8.31;100.00;103175.38;10184807;28;20099;-65
2022/04/15 20:59:59;;;;;;;22.73;10.30;;;;;;;8.17;100.00;103174.84;10204739;28;20058;-65
2022/04/15 21:04:55;;;;;;;21.73;10.15;;;;;;;8.27;100.00;103178.84;10177166;28;20211;-64
2022/04/15 21:09:52;;;;;;;20.77;9.43;;;;;;;8.23;100.00;103178.47;10192341;28;20073;-64
2022/04/15 21:14:49;;;;;;;25.10;10.45;;;;;;;8.19;100.00;103191.78;10202880;28;20041;-65
2022/04/15 21:19:45;;;;;;;20.92;9.65;;;;;;;8.18;100.00;103192.84;10210244;28;20045;-66
2022/04/15 21:24:42;;;;;;;19.92;9.93;;;;;;;8.21;100.00;103203.28;10221139;28;20762;-66
2022/04/15 21:29:38;;;;;;;21.23;11.00;;;;;;;8.19;100.00;103210.84;10208844;28;20045;-67
2022/04/15 21:34:42;;;;;;;21.45;9.98;;;;;;;8.20;100.00;103212.50;10211798;28;20038;-66
2022/04/15 21:39:39;;;;;;;20.67;9.63;;;;;;;7.90;100.00;103211.84;10224539;28;20128;-66
2022/04/15 21:44:36;;;;;;;19.95;10.18;;;;;;;7.72;100.00;103227.25;10192582;28;20554;-68
2022/04/15 21:49:32;;;;;;;19.40;9.60;;;;;;;7.88;100.00;103213.97;10210186;28;20077;-65
2022/04/15 21:54:30;;;;;;;16.92;8.98;;;;;;;7.96;100.00;103224.50;10215784;28;20038;-66
2022/04/15 21:59:29;;;;;;;16.90;9.25;;;;;;;7.99;100.00;103221.31;10218483;28;20560;-65
2022/04/15 22:04:25;;;;;;;16.98;7.88;;;;;;;7.97;100.00;103234.34;10201870;28;20034;-64
2022/04/15 22:09:21;;;;;;;16.92;8.30;;;;;;;7.86;100.00;103237.91;10208179;28;20080;-65
2022/04/15 22:14:18;;;;;;;14.15;8.38;;;;;;;7.92;100.00;103243.22;10209658;28;20137;-65
2022/04/15 22:19:15;;;;;;;12.77;7.00;;;;;;;7.85;100.00;103236.25;10217421;28;20049;-63
2022/04/15 22:24:11;;;;;;;16.40;8.80;;;;;;;7.71;100.00;103236.50;10219396;28;20045;-64
2022/04/15 22:29:08;;;;;;;14.05;7.82;;;;;;;7.79;100.00;103238.84;10217506;28;20049;-67
2022/04/15 22:34:04;;;;;;;11.18;6.63;;;;;;;7.84;100.00;103240.03;10198339;28;20042;-66
2022/04/15 22:39:01;;;;;;;12.48;6.78;;;;;;;7.66;100.00;103239.09;10214578;28;20640;-66
2022/04/15 22:43:57;;;;;;;14.93;6.93;;;;;;;7.73;100.00;103247.97;10215049;28;20045;-66